KBNL/BNL METAR and TAF weather

Enter ICAO airport designator
Station Type Date Time Source
KBNL METAR 2022/05/24 11:55 UTC NOAA

KBNL 241155Z AUTO 00000KT 1/4SM FG OVC003 21/20 A3008 RMK AO2


Station Type Date Time Source
KBNL Decoded METAR 2022/05/24 11:55 UTC NOAA

Station name not available
May 24, 2022 - 07:55 AM EDT / 2022.05.24 1155 UTC
Wind: Calm:0
Visibility: 1/4 mile(s):0
Sky conditions: overcast
Weather: fog
Temperature: 69 F (21 C)
Dew Point: 68 F (20 C)
Relative Humidity: 94%
Pressure (altimeter): 30.08 in. Hg (1018 hPa)
ob: KBNL 241155Z AUTO 00000KT 1/4SM FG OVC003 21/20 A3008 RMK AO2
cycle: 12

Station Type Date Time Source
KBNL TAF UTC NOAA

Error!

Example: see airport list